sensor_id;sensor_type;location;lat;lon;timestamp;temperature;humidity
52669;DHT22;74205;52.786;6.892;2024-02-14T00:02:58;7.20;100.00
52669;DHT22;74205;52.786;6.892;2024-02-14T00:06:19;7.20;100.00
52669;DHT22;74205;52.786;6.892;2024-02-14T00:09:39;7.10;100.00
52669;DHT22;74205;52.786;6.892;2024-02-14T00:13:00;7.10;100.00
52669;DHT22;74205;52.786;6.892;2024-02-14T00:16:21;7.00;100.00
52669;DHT22;74205;52.786;6.892;2024-02-14T00:19:41;7.00;100.00
52669;DHT22;74205;52.786;6.892;2024-02-14T00:23:02;7.00;100.00
52669;DHT22;74205;52.786;6.892;2024-02-14T00:26:22;7.00;100.00
52669;DHT22;74205;52.786;6.892;2024-02-14T00:29:43;7.00;100.00
52669;DHT22;74205;52.786;6.892;2024-02-14T00:33:05;7.00;100.00
52669;DHT22;74205;52.786;6.892;2024-02-14T00:36:27;6.90;100.00
52669;DHT22;74205;52.786;6.892;2024-02-14T00:39:47;6.90;100.00
52669;DHT22;74205;52.786;6.892;2024-02-14T00:43:10;6.90;100.00
52669;DHT22;74205;52.786;6.892;2024-02-14T00:46:31;6.90;100.00
52669;DHT22;74205;52.786;6.892;2024-02-14T00:49:51;6.90;100.00
52669;DHT22;74205;52.786;6.892;2024-02-14T00:53:12;6.90;100.00
52669;DHT22;74205;52.786;6.892;2024-02-14T00:56:34;6.90;100.00
52669;DHT22;74205;52.786;6.892;2024-02-14T00:59:54;6.90;100.00
52669;DHT22;74205;52.786;6.892;2024-02-14T01:03:17;7.00;100.00
52669;DHT22;74205;52.786;6.892;2024-02-14T01:06:37;7.00;100.00
52669;DHT22;74205;52.786;6.892;2024-02-14T01:09:58;7.00;100.00
52669;DHT22;74205;52.786;6.892;2024-02-14T01:13:18;7.00;100.00
52669;DHT22;74205;52.786;6.892;2024-02-14T01:16:43;7.10;100.00
52669;DHT22;74205;52.786;6.892;2024-02-14T01:20:05;7.10;100.00
52669;DHT22;74205;52.786;6.892;2024-02-14T01:23:28;7.10;100.00
52669;DHT22;74205;52.786;6.892;2024-02-14T01:26:49;7.10;100.00
52669;DHT22;74205;52.786;6.892;2024-02-14T01:30:11;7.10;100.00
52669;DHT22;74205;52.786;6.892;2024-02-14T01:33:32;7.10;100.00
52669;DHT22;74205;52.786;6.892;2024-02-14T01:36:52;7.20;100.00
52669;DHT22;74205;52.786;6.892;2024-02-14T01:40:14;7.20;100.00
52669;DHT22;74205;52.786;6.892;2024-02-14T01:43:35;7.20;100.00
52669;DHT22;74205;52.786;6.892;2024-02-14T01:46:56;7.20;100.00
52669;DHT22;74205;52.786;6.892;2024-02-14T01:50:17;7.30;100.00
52669;DHT22;74205;52.786;6.892;2024-02-14T01:53:39;7.30;100.00
52669;DHT22;74205;52.786;6.892;2024-02-14T01:57:00;7.30;100.00
52669;DHT22;74205;52.786;6.892;2024-02-14T02:00:21;7.40;100.00
52669;DHT22;74205;52.786;6.892;2024-02-14T02:03:42;7.40;100.00
52669;DHT22;74205;52.786;6.892;2024-02-14T02:07:03;7.40;100.00
52669;DHT22;74205;52.786;6.892;2024-02-14T02:10:24;7.40;100.00
52669;DHT22;74205;52.786;6.892;2024-02-14T02:13:46;7.40;100.00
52669;DHT22;74205;52.786;6.892;2024-02-14T02:17:07;7.40;100.00
52669;DHT22;74205;52.786;6.892;2024-02-14T02:20:29;7.50;100.00
52669;DHT22;74205;52.786;6.892;2024-02-14T02:23:50;7.50;100.00
52669;DHT22;74205;52.786;6.892;2024-02-14T02:27:11;7.50;100.00
52669;DHT22;74205;52.786;6.892;2024-02-14T02:30:34;7.60;100.00
52669;DHT22;74205;52.786;6.892;2024-02-14T02:33:55;7.60;100.00
52669;DHT22;74205;52.786;6.892;2024-02-14T02:37:16;7.60;100.00
52669;DHT22;74205;52.786;6.892;2024-02-14T02:40:38;7.70;100.00
52669;DHT22;74205;52.786;6.892;2024-02-14T02:43:58;7.70;100.00
52669;DHT22;74205;52.786;6.892;2024-02-14T02:47:23;7.70;100.00
52669;DHT22;74205;52.786;6.892;2024-02-14T02:50:43;7.80;100.00
52669;DHT22;74205;52.786;6.892;2024-02-14T02:54:04;7.80;100.00
52669;DHT22;74205;52.786;6.892;2024-02-14T02:57:25;7.80;100.00
52669;DHT22;74205;52.786;6.892;2024-02-14T03:00:47;7.80;100.00
52669;DHT22;74205;52.786;6.892;2024-02-14T03:04:09;7.80;100.00
52669;DHT22;74205;52.786;6.892;2024-02-14T03:07:30;7.80;100.00
52669;DHT22;74205;52.786;6.892;2024-02-14T03:10:51;7.90;100.00
52669;DHT22;74205;52.786;6.892;2024-02-14T03:14:12;7.90;100.00
52669;DHT22;74205;52.786;6.892;2024-02-14T03:17:32;7.90;100.00
52669;DHT22;74205;52.786;6.892;2024-02-14T03:20:53;7.90;100.00
52669;DHT22;74205;52.786;6.892;2024-02-14T03:24:16;8.00;100.00
52669;DHT22;74205;52.786;6.892;2024-02-14T03:27:37;8.00;100.00
52669;DHT22;74205;52.786;6.892;2024-02-14T03:30:57;8.10;100.00
52669;DHT22;74205;52.786;6.892;2024-02-14T03:34:18;8.10;100.00
52669;DHT22;74205;52.786;6.892;2024-02-14T03:37:45;8.10;100.00
52669;DHT22;74205;52.786;6.892;2024-02-14T03:41:09;8.10;100.00
52669;DHT22;74205;52.786;6.892;2024-02-14T03:44:29;8.10;100.00
52669;DHT22;74205;52.786;6.892;2024-02-14T03:47:51;8.10;100.00
52669;DHT22;74205;52.786;6.892;2024-02-14T03:51:11;8.20;100.00
52669;DHT22;74205;52.786;6.892;2024-02-14T03:54:32;8.20;100.00
52669;DHT22;74205;52.786;6.892;2024-02-14T03:57:53;8.20;100.00
52669;DHT22;74205;52.786;6.892;2024-02-14T04:01:15;8.20;100.00
52669;DHT22;74205;52.786;6.892;2024-02-14T04:04:41;8.30;100.00
52669;DHT22;74205;52.786;6.892;2024-02-14T04:08:02;8.30;100.00
52669;DHT22;74205;52.786;6.892;2024-02-14T04:11:23;8.30;100.00
52669;DHT22;74205;52.786;6.892;2024-02-14T04:14:44;8.30;100.00
52669;DHT22;74205;52.786;6.892;2024-02-14T04:18:04;8.40;100.00
52669;DHT22;74205;52.786;6.892;2024-02-14T04:21:26;8.40;100.00
52669;DHT22;74205;52.786;6.892;2024-02-14T04:24:47;8.40;100.00
52669;DHT22;74205;52.786;6.892;2024-02-14T04:28:07;8.50;100.00
52669;DHT22;74205;52.786;6.892;2024-02-14T04:31:28;8.50;100.00
52669;DHT22;74205;52.786;6.892;2024-02-14T04:34:50;8.50;100.00
52669;DHT22;74205;52.786;6.892;2024-02-14T04:38:10;8.50;100.00
52669;DHT22;74205;52.786;6.892;2024-02-14T04:41:31;8.60;100.00
52669;DHT22;74205;52.786;6.892;2024-02-14T04:44:52;8.60;100.00
52669;DHT22;74205;52.786;6.892;2024-02-14T04:48:12;8.60;100.00
52669;DHT22;74205;52.786;6.892;2024-02-14T04:51:33;8.70;100.00
52669;DHT22;74205;52.786;6.892;2024-02-14T04:54:53;8.70;100.00
52669;DHT22;74205;52.786;6.892;2024-02-14T04:58:14;8.70;100.00
52669;DHT22;74205;52.786;6.892;2024-02-14T05:01:35;8.70;100.00
52669;DHT22;74205;52.786;6.892;2024-02-14T05:04:55;8.80;100.00
52669;DHT22;74205;52.786;6.892;2024-02-14T05:08:16;8.80;100.00
52669;DHT22;74205;52.786;6.892;2024-02-14T05:11:36;8.80;100.00
52669;DHT22;74205;52.786;6.892;2024-02-14T05:14:57;8.80;100.00
52669;DHT22;74205;52.786;6.892;2024-02-14T05:18:18;8.90;100.00
52669;DHT22;74205;52.786;6.892;2024-02-14T05:21:39;8.90;100.00
52669;DHT22;74205;52.786;6.892;2024-02-14T05:24:59;8.90;100.00
52669;DHT22;74205;52.786;6.892;2024-02-14T05:28:20;8.90;100.00
52669;DHT22;74205;52.786;6.892;2024-02-14T05:31:45;8.90;100.00
52669;DHT22;74205;52.786;6.892;2024-02-14T05:35:06;9.00;100.00
52669;DHT22;74205;52.786;6.892;2024-02-14T05:38:28;9.00;100.00
52669;DHT22;74205;52.786;6.892;2024-02-14T05:41:50;9.00;100.00
52669;DHT22;74205;52.786;6.892;2024-02-14T05:45:11;9.00;100.00
52669;DHT22;74205;52.786;6.892;2024-02-14T05:48:32;9.00;100.00
52669;DHT22;74205;52.786;6.892;2024-02-14T05:51:53;9.10;100.00
52669;DHT22;74205;52.786;6.892;2024-02-14T05:55:14;9.10;100.00
52669;DHT22;74205;52.786;6.892;2024-02-14T05:58:35;9.10;100.00
52669;DHT22;74205;52.786;6.892;2024-02-14T06:01:56;9.10;100.00
52669;DHT22;74205;52.786;6.892;2024-02-14T06:05:17;9.10;100.00
52669;DHT22;74205;52.786;6.892;2024-02-14T06:08:37;9.10;100.00
52669;DHT22;74205;52.786;6.892;2024-02-14T06:11:58;9.20;100.00
52669;DHT22;74205;52.786;6.892;2024-02-14T06:15:18;9.20;100.00
52669;DHT22;74205;52.786;6.892;2024-02-14T06:18:39;9.20;100.00
52669;DHT22;74205;52.786;6.892;2024-02-14T06:22:00;9.20;100.00
52669;DHT22;74205;52.786;6.892;2024-02-14T06:25:21;9.20;100.00
52669;DHT22;74205;52.786;6.892;2024-02-14T06:28:42;9.20;100.00
52669;DHT22;74205;52.786;6.892;2024-02-14T06:32:02;9.30;100.00
52669;DHT22;74205;52.786;6.892;2024-02-14T06:35:23;9.30;100.00
52669;DHT22;74205;52.786;6.892;2024-02-14T06:38:44;9.30;100.00
52669;DHT22;74205;52.786;6.892;2024-02-14T06:42:06;9.30;100.00
52669;DHT22;74205;52.786;6.892;2024-02-14T06:45:27;9.30;100.00
52669;DHT22;74205;52.786;6.892;2024-02-14T06:48:50;9.40;100.00
52669;DHT22;74205;52.786;6.892;2024-02-14T06:52:11;9.40;100.00
52669;DHT22;74205;52.786;6.892;2024-02-14T06:55:31;9.50;100.00
52669;DHT22;74205;52.786;6.892;2024-02-14T06:58:52;9.50;100.00
52669;DHT22;74205;52.786;6.892;2024-02-14T07:02:20;9.50;100.00
52669;DHT22;74205;52.786;6.892;2024-02-14T07:05:41;9.50;100.00
52669;DHT22;74205;52.786;6.892;2024-02-14T07:09:02;9.60;100.00
52669;DHT22;74205;52.786;6.892;2024-02-14T07:12:22;9.60;100.00
52669;DHT22;74205;52.786;6.892;2024-02-14T07:15:44;9.60;100.00
52669;DHT22;74205;52.786;6.892;2024-02-14T07:19:04;9.60;100.00
52669;DHT22;74205;52.786;6.892;2024-02-14T07:22:25;9.70;100.00
52669;DHT22;74205;52.786;6.892;2024-02-14T07:25:45;9.70;100.00
52669;DHT22;74205;52.786;6.892;2024-02-14T07:29:06;9.70;100.00
52669;DHT22;74205;52.786;6.892;2024-02-14T07:32:27;9.70;100.00
52669;DHT22;74205;52.786;6.892;2024-02-14T07:35:48;9.80;100.00
52669;DHT22;74205;52.786;6.892;2024-02-14T07:39:08;9.80;100.00
52669;DHT22;74205;52.786;6.892;2024-02-14T07:42:29;9.80;100.00
52669;DHT22;74205;52.786;6.892;2024-02-14T07:45:50;9.80;100.00
52669;DHT22;74205;52.786;6.892;2024-02-14T07:49:10;9.80;100.00
52669;DHT22;74205;52.786;6.892;2024-02-14T07:52:31;9.90;100.00
52669;DHT22;74205;52.786;6.892;2024-02-14T07:55:52;9.90;100.00
52669;DHT22;74205;52.786;6.892;2024-02-14T07:59:15;9.90;100.00
52669;DHT22;74205;52.786;6.892;2024-02-14T08:02:36;9.90;100.00
52669;DHT22;74205;52.786;6.892;2024-02-14T08:05:57;9.90;100.00
52669;DHT22;74205;52.786;6.892;2024-02-14T08:09:18;9.90;100.00
52669;DHT22;74205;52.786;6.892;2024-02-14T08:12:39;9.90;100.00
52669;DHT22;74205;52.786;6.892;2024-02-14T08:16:00;9.90;100.00
52669;DHT22;74205;52.786;6.892;2024-02-14T08:19:20;9.90;100.00
52669;DHT22;74205;52.786;6.892;2024-02-14T08:22:41;9.90;100.00
52669;DHT22;74205;52.786;6.892;2024-02-14T08:26:02;10.00;100.00
52669;DHT22;74205;52.786;6.892;2024-02-14T08:29:23;10.00;100.00
52669;DHT22;74205;52.786;6.892;2024-02-14T08:32:44;10.00;100.00
52669;DHT22;74205;52.786;6.892;2024-02-14T08:36:05;10.00;100.00
52669;DHT22;74205;52.786;6.892;2024-02-14T08:39:26;10.00;100.00
52669;DHT22;74205;52.786;6.892;2024-02-14T08:42:46;10.00;100.00
52669;DHT22;74205;52.786;6.892;2024-02-14T08:46:11;10.00;100.00
52669;DHT22;74205;52.786;6.892;2024-02-14T08:49:31;10.10;100.00
52669;DHT22;74205;52.786;6.892;2024-02-14T08:52:52;10.10;100.00
52669;DHT22;74205;52.786;6.892;2024-02-14T08:56:13;10.10;100.00
52669;DHT22;74205;52.786;6.892;2024-02-14T08:59:33;10.10;100.00
52669;DHT22;74205;52.786;6.892;2024-02-14T09:02:54;10.10;100.00
52669;DHT22;74205;52.786;6.892;2024-02-14T09:06:17;10.20;100.00
52669;DHT22;74205;52.786;6.892;2024-02-14T09:09:40;10.20;100.00
52669;DHT22;74205;52.786;6.892;2024-02-14T09:13:01;10.20;100.00
52669;DHT22;74205;52.786;6.892;2024-02-14T09:16:22;10.20;100.00
52669;DHT22;74205;52.786;6.892;2024-02-14T09:19:44;10.20;100.00
52669;DHT22;74205;52.786;6.892;2024-02-14T09:23:04;10.20;100.00
52669;DHT22;74205;52.786;6.892;2024-02-14T09:26:25;10.20;100.00
52669;DHT22;74205;52.786;6.892;2024-02-14T09:29:47;10.20;100.00
52669;DHT22;74205;52.786;6.892;2024-02-14T09:33:07;10.20;100.00
52669;DHT22;74205;52.786;6.892;2024-02-14T09:36:28;10.20;100.00
52669;DHT22;74205;52.786;6.892;2024-02-14T09:39:49;10.20;100.00
52669;DHT22;74205;52.786;6.892;2024-02-14T09:43:36;10.20;100.00
52669;DHT22;74205;52.786;6.892;2024-02-14T09:46:58;10.30;100.00
52669;DHT22;74205;52.786;6.892;2024-02-14T09:50:20;10.20;100.00
52669;DHT22;74205;52.786;6.892;2024-02-14T09:53:41;10.20;100.00
52669;DHT22;74205;52.786;6.892;2024-02-14T09:57:02;10.20;100.00
52669;DHT22;74205;52.786;6.892;2024-02-14T10:00:23;10.20;100.00
52669;DHT22;74205;52.786;6.892;2024-02-14T10:03:44;10.30;100.00
52669;DHT22;74205;52.786;6.892;2024-02-14T10:07:04;10.30;100.00
52669;DHT22;74205;52.786;6.892;2024-02-14T10:10:25;10.30;100.00
52669;DHT22;74205;52.786;6.892;2024-02-14T10:13:46;10.30;100.00
52669;DHT22;74205;52.786;6.892;2024-02-14T10:17:08;10.40;100.00
52669;DHT22;74205;52.786;6.892;2024-02-14T10:20:30;10.40;100.00
52669;DHT22;74205;52.786;6.892;2024-02-14T10:23:54;10.40;100.00
52669;DHT22;74205;52.786;6.892;2024-02-14T10:27:18;10.40;100.00
52669;DHT22;74205;52.786;6.892;2024-02-14T10:30:38;10.40;100.00
52669;DHT22;74205;52.786;6.892;2024-02-14T10:34:01;10.40;100.00
52669;DHT22;74205;52.786;6.892;2024-02-14T10:37:24;10.40;100.00
52669;DHT22;74205;52.786;6.892;2024-02-14T10:40:47;10.50;100.00
52669;DHT22;74205;52.786;6.892;2024-02-14T10:44:07;10.50;100.00
52669;DHT22;74205;52.786;6.892;2024-02-14T10:47:34;10.50;100.00
52669;DHT22;74205;52.786;6.892;2024-02-14T10:50:58;10.50;100.00
52669;DHT22;74205;52.786;6.892;2024-02-14T10:54:20;10.50;100.00
52669;DHT22;74205;52.786;6.892;2024-02-14T10:57:43;10.50;100.00
52669;DHT22;74205;52.786;6.892;2024-02-14T11:01:05;10.50;100.00
52669;DHT22;74205;52.786;6.892;2024-02-14T11:04:28;10.60;100.00
52669;DHT22;74205;52.786;6.892;2024-02-14T11:07:50;10.60;100.00
52669;DHT22;74205;52.786;6.892;2024-02-14T11:11:13;10.60;100.00
52669;DHT22;74205;52.786;6.892;2024-02-14T11:14:35;10.60;100.00
52669;DHT22;74205;52.786;6.892;2024-02-14T11:18:05;10.60;100.00
52669;DHT22;74205;52.786;6.892;2024-02-14T11:21:30;10.70;100.00
52669;DHT22;74205;52.786;6.892;2024-02-14T11:24:51;10.70;100.00
52669;DHT22;74205;52.786;6.892;2024-02-14T11:28:19;10.70;100.00
52669;DHT22;74205;52.786;6.892;2024-02-14T11:31:40;10.70;100.00
52669;DHT22;74205;52.786;6.892;2024-02-14T11:35:01;10.70;100.00
52669;DHT22;74205;52.786;6.892;2024-02-14T11:38:23;10.70;100.00
52669;DHT22;74205;52.786;6.892;2024-02-14T11:41:46;10.70;100.00
52669;DHT22;74205;52.786;6.892;2024-02-14T11:45:06;10.80;100.00
52669;DHT22;74205;52.786;6.892;2024-02-14T11:48:28;10.80;100.00
52669;DHT22;74205;52.786;6.892;2024-02-14T11:51:49;10.80;100.00
52669;DHT22;74205;52.786;6.892;2024-02-14T11:55:10;10.80;100.00
52669;DHT22;74205;52.786;6.892;2024-02-14T11:58:31;10.80;100.00
52669;DHT22;74205;52.786;6.892;2024-02-14T12:01:53;10.90;100.00
52669;DHT22;74205;52.786;6.892;2024-02-14T12:05:16;10.90;100.00
52669;DHT22;74205;52.786;6.892;2024-02-14T12:08:37;10.90;100.00
52669;DHT22;74205;52.786;6.892;2024-02-14T12:11:58;11.00;100.00
52669;DHT22;74205;52.786;6.892;2024-02-14T12:15:19;11.00;100.00
52669;DHT22;74205;52.786;6.892;2024-02-14T12:18:40;11.00;100.00
52669;DHT22;74205;52.786;6.892;2024-02-14T12:22:01;11.00;100.00
52669;DHT22;74205;52.786;6.892;2024-02-14T12:25:21;11.10;100.00
52669;DHT22;74205;52.786;6.892;2024-02-14T12:28:46;11.10;100.00
52669;DHT22;74205;52.786;6.892;2024-02-14T12:32:07;11.10;100.00
52669;DHT22;74205;52.786;6.892;2024-02-14T12:35:28;11.10;100.00
52669;DHT22;74205;52.786;6.892;2024-02-14T12:38:50;11.20;100.00
52669;DHT22;74205;52.786;6.892;2024-02-14T12:42:12;11.20;100.00
52669;DHT22;74205;52.786;6.892;2024-02-14T12:45:32;11.20;100.00
52669;DHT22;74205;52.786;6.892;2024-02-14T12:48:54;11.20;100.00
52669;DHT22;74205;52.786;6.892;2024-02-14T12:52:14;11.10;100.00
52669;DHT22;74205;52.786;6.892;2024-02-14T12:55:35;11.20;100.00
52669;DHT22;74205;52.786;6.892;2024-02-14T12:58:56;11.20;100.00
52669;DHT22;74205;52.786;6.892;2024-02-14T13:02:17;11.20;100.00
52669;DHT22;74205;52.786;6.892;2024-02-14T13:05:39;11.20;100.00
52669;DHT22;74205;52.786;6.892;2024-02-14T13:09:00;11.20;100.00
52669;DHT22;74205;52.786;6.892;2024-02-14T13:12:20;11.20;100.00
52669;DHT22;74205;52.786;6.892;2024-02-14T13:15:41;11.20;100.00
52669;DHT22;74205;52.786;6.892;2024-02-14T13:19:04;11.20;100.00
52669;DHT22;74205;52.786;6.892;2024-02-14T13:22:28;11.20;100.00
52669;DHT22;74205;52.786;6.892;2024-02-14T13:25:48;11.20;100.00
52669;DHT22;74205;52.786;6.892;2024-02-14T13:29:09;11.20;100.00
52669;DHT22;74205;52.786;6.892;2024-02-14T13:32:30;11.20;100.00
52669;DHT22;74205;52.786;6.892;2024-02-14T13:35:51;11.20;100.00
52669;DHT22;74205;52.786;6.892;2024-02-14T13:39:11;11.20;100.00
52669;DHT22;74205;52.786;6.892;2024-02-14T13:42:36;11.20;100.00
52669;DHT22;74205;52.786;6.892;2024-02-14T13:45:58;11.20;100.00
52669;DHT22;74205;52.786;6.892;2024-02-14T13:49:19;11.20;100.00
52669;DHT22;74205;52.786;6.892;2024-02-14T13:52:42;11.20;100.00
52669;DHT22;74205;52.786;6.892;2024-02-14T13:56:03;11.20;100.00
52669;DHT22;74205;52.786;6.892;2024-02-14T13:59:24;11.20;100.00
52669;DHT22;74205;52.786;6.892;2024-02-14T14:02:45;11.20;100.00
52669;DHT22;74205;52.786;6.892;2024-02-14T14:06:06;11.20;100.00
52669;DHT22;74205;52.786;6.892;2024-02-14T14:09:28;11.30;100.00
52669;DHT22;74205;52.786;6.892;2024-02-14T14:12:50;11.20;100.00
52669;DHT22;74205;52.786;6.892;2024-02-14T14:16:11;11.30;100.00
52669;DHT22;74205;52.786;6.892;2024-02-14T14:19:31;11.30;100.00
52669;DHT22;74205;52.786;6.892;2024-02-14T14:22:52;11.30;100.00
52669;DHT22;74205;52.786;6.892;2024-02-14T14:26:13;11.30;100.00
52669;DHT22;74205;52.786;6.892;2024-02-14T14:29:34;11.30;100.00
52669;DHT22;74205;52.786;6.892;2024-02-14T14:32:55;11.30;100.00
52669;DHT22;74205;52.786;6.892;2024-02-14T14:36:16;11.30;100.00
52669;DHT22;74205;52.786;6.892;2024-02-14T14:39:37;11.30;100.00
52669;DHT22;74205;52.786;6.892;2024-02-14T14:42:57;11.30;100.00
52669;DHT22;74205;52.786;6.892;2024-02-14T14:46:18;11.30;100.00
52669;DHT22;74205;52.786;6.892;2024-02-14T14:49:38;11.30;100.00
52669;DHT22;74205;52.786;6.892;2024-02-14T14:52:59;11.30;100.00
52669;DHT22;74205;52.786;6.892;2024-02-14T14:56:19;11.20;100.00
52669;DHT22;74205;52.786;6.892;2024-02-14T14:59:45;11.20;100.00
52669;DHT22;74205;52.786;6.892;2024-02-14T15:03:08;11.20;100.00
52669;DHT22;74205;52.786;6.892;2024-02-14T15:06:29;11.20;100.00
52669;DHT22;74205;52.786;6.892;2024-02-14T15:09:50;11.20;100.00
52669;DHT22;74205;52.786;6.892;2024-02-14T15:13:11;11.20;100.00
52669;DHT22;74205;52.786;6.892;2024-02-14T15:16:33;11.20;100.00
52669;DHT22;74205;52.786;6.892;2024-02-14T15:19:54;11.20;100.00
52669;DHT22;74205;52.786;6.892;2024-02-14T15:23:14;11.30;100.00
52669;DHT22;74205;52.786;6.892;2024-02-14T15:26:35;11.30;100.00
52669;DHT22;74205;52.786;6.892;2024-02-14T15:30:13;11.30;100.00
52669;DHT22;74205;52.786;6.892;2024-02-14T15:33:53;11.30;100.00
52669;DHT22;74205;52.786;6.892;2024-02-14T15:37:15;11.30;100.00
52669;DHT22;74205;52.786;6.892;2024-02-14T15:40:38;11.30;100.00
52669;DHT22;74205;52.786;6.892;2024-02-14T15:43:58;11.30;100.00
52669;DHT22;74205;52.786;6.892;2024-02-14T15:47:19;11.30;100.00
52669;DHT22;74205;52.786;6.892;2024-02-14T15:50:40;11.40;100.00
52669;DHT22;74205;52.786;6.892;2024-02-14T15:54:00;11.30;100.00
52669;DHT22;74205;52.786;6.892;2024-02-14T15:57:21;11.40;100.00
52669;DHT22;74205;52.786;6.892;2024-02-14T16:00:42;11.40;100.00
52669;DHT22;74205;52.786;6.892;2024-02-14T16:04:02;11.30;100.00
52669;DHT22;74205;52.786;6.892;2024-02-14T16:07:26;11.40;100.00
52669;DHT22;74205;52.786;6.892;2024-02-14T16:10:47;11.40;100.00
52669;DHT22;74205;52.786;6.892;2024-02-14T16:14:08;11.40;100.00
52669;DHT22;74205;52.786;6.892;2024-02-14T16:17:29;11.40;100.00
52669;DHT22;74205;52.786;6.892;2024-02-14T16:20:50;11.40;100.00
52669;DHT22;74205;52.786;6.892;2024-02-14T16:24:12;11.40;100.00
52669;DHT22;74205;52.786;6.892;2024-02-14T16:27:33;11.40;100.00
52669;DHT22;74205;52.786;6.892;2024-02-14T16:30:54;11.40;100.00
52669;DHT22;74205;52.786;6.892;2024-02-14T16:34:15;11.40;100.00
52669;DHT22;74205;52.786;6.892;2024-02-14T16:37:35;11.40;100.00
52669;DHT22;74205;52.786;6.892;2024-02-14T16:40:56;11.40;100.00
52669;DHT22;74205;52.786;6.892;2024-02-14T16:44:17;11.40;100.00
52669;DHT22;74205;52.786;6.892;2024-02-14T16:47:38;11.40;100.00
52669;DHT22;74205;52.786;6.892;2024-02-14T16:50:59;11.40;100.00
52669;DHT22;74205;52.786;6.892;2024-02-14T16:54:19;11.40;100.00
52669;DHT22;74205;52.786;6.892;2024-02-14T16:57:40;11.40;100.00
52669;DHT22;74205;52.786;6.892;2024-02-14T17:01:01;11.40;100.00
52669;DHT22;74205;52.786;6.892;2024-02-14T17:04:21;11.40;100.00
52669;DHT22;74205;52.786;6.892;2024-02-14T17:07:43;11.40;100.00
52669;DHT22;74205;52.786;6.892;2024-02-14T17:11:04;11.30;100.00
52669;DHT22;74205;52.786;6.892;2024-02-14T17:14:25;11.40;100.00
52669;DHT22;74205;52.786;6.892;2024-02-14T17:17:46;11.30;100.00
52669;DHT22;74205;52.786;6.892;2024-02-14T17:21:07;11.30;100.00
52669;DHT22;74205;52.786;6.892;2024-02-14T17:24:27;11.30;100.00
52669;DHT22;74205;52.786;6.892;2024-02-14T17:27:48;11.30;100.00
52669;DHT22;74205;52.786;6.892;2024-02-14T17:31:09;11.30;100.00
52669;DHT22;74205;52.786;6.892;2024-02-14T17:34:31;11.30;100.00
52669;DHT22;74205;52.786;6.892;2024-02-14T17:37:54;11.30;100.00
52669;DHT22;74205;52.786;6.892;2024-02-14T17:41:14;11.30;100.00
52669;DHT22;74205;52.786;6.892;2024-02-14T17:44:35;11.30;100.00
52669;DHT22;74205;52.786;6.892;2024-02-14T17:47:55;11.30;100.00
52669;DHT22;74205;52.786;6.892;2024-02-14T17:51:16;11.30;100.00
52669;DHT22;74205;52.786;6.892;2024-02-14T17:54:37;11.30;100.00
52669;DHT22;74205;52.786;6.892;2024-02-14T17:57:59;11.30;100.00
52669;DHT22;74205;52.786;6.892;2024-02-14T18:01:22;11.30;100.00
52669;DHT22;74205;52.786;6.892;2024-02-14T18:04:43;11.30;100.00
52669;DHT22;74205;52.786;6.892;2024-02-14T18:08:04;11.30;100.00
52669;DHT22;74205;52.786;6.892;2024-02-14T18:11:25;11.30;100.00
52669;DHT22;74205;52.786;6.892;2024-02-14T18:14:45;11.40;100.00
52669;DHT22;74205;52.786;6.892;2024-02-14T18:18:06;11.30;100.00
52669;DHT22;74205;52.786;6.892;2024-02-14T18:21:27;11.40;100.00
52669;DHT22;74205;52.786;6.892;2024-02-14T18:24:48;11.40;100.00
52669;DHT22;74205;52.786;6.892;2024-02-14T18:28:08;11.40;100.00
52669;DHT22;74205;52.786;6.892;2024-02-14T18:31:29;11.40;100.00
52669;DHT22;74205;52.786;6.892;2024-02-14T18:34:50;11.40;100.00
52669;DHT22;74205;52.786;6.892;2024-02-14T18:38:10;11.40;100.00
52669;DHT22;74205;52.786;6.892;2024-02-14T18:41:31;11.40;100.00
52669;DHT22;74205;52.786;6.892;2024-02-14T18:44:51;11.40;100.00
52669;DHT22;74205;52.786;6.892;2024-02-14T18:48:12;11.40;100.00
52669;DHT22;74205;52.786;6.892;2024-02-14T18:51:34;11.40;100.00
52669;DHT22;74205;52.786;6.892;2024-02-14T18:54:56;11.40;100.00
52669;DHT22;74205;52.786;6.892;2024-02-14T18:58:17;11.50;100.00
52669;DHT22;74205;52.786;6.892;2024-02-14T19:01:38;11.50;100.00
52669;DHT22;74205;52.786;6.892;2024-02-14T19:04:59;11.50;100.00
52669;DHT22;74205;52.786;6.892;2024-02-14T19:08:19;11.50;100.00
52669;DHT22;74205;52.786;6.892;2024-02-14T19:11:40;11.50;100.00
52669;DHT22;74205;52.786;6.892;2024-02-14T19:15:01;11.50;100.00
52669;DHT22;74205;52.786;6.892;2024-02-14T19:18:26;11.50;100.00
52669;DHT22;74205;52.786;6.892;2024-02-14T19:21:46;11.50;100.00
52669;DHT22;74205;52.786;6.892;2024-02-14T19:25:07;11.50;100.00
52669;DHT22;74205;52.786;6.892;2024-02-14T19:28:28;11.50;100.00
52669;DHT22;74205;52.786;6.892;2024-02-14T19:31:49;11.50;100.00
52669;DHT22;74205;52.786;6.892;2024-02-14T19:35:09;11.50;100.00
52669;DHT22;74205;52.786;6.892;2024-02-14T19:38:30;11.50;100.00
52669;DHT22;74205;52.786;6.892;2024-02-14T19:41:51;11.50;100.00
52669;DHT22;74205;52.786;6.892;2024-02-14T19:45:11;11.50;100.00
52669;DHT22;74205;52.786;6.892;2024-02-14T19:48:32;11.50;100.00
52669;DHT22;74205;52.786;6.892;2024-02-14T19:51:54;11.50;100.00
52669;DHT22;74205;52.786;6.892;2024-02-14T19:55:15;11.50;100.00
52669;DHT22;74205;52.786;6.892;2024-02-14T19:58:36;11.50;100.00
52669;DHT22;74205;52.786;6.892;2024-02-14T20:01:56;11.50;100.00
52669;DHT22;74205;52.786;6.892;2024-02-14T20:05:17;11.50;100.00
52669;DHT22;74205;52.786;6.892;2024-02-14T20:08:43;11.50;100.00
52669;DHT22;74205;52.786;6.892;2024-02-14T20:12:03;11.50;100.00
52669;DHT22;74205;52.786;6.892;2024-02-14T20:15:24;11.50;100.00
52669;DHT22;74205;52.786;6.892;2024-02-14T20:18:45;11.40;100.00
52669;DHT22;74205;52.786;6.892;2024-02-14T20:22:06;11.40;100.00
52669;DHT22;74205;52.786;6.892;2024-02-14T20:25:26;11.40;100.00
52669;DHT22;74205;52.786;6.892;2024-02-14T20:28:47;11.40;100.00
52669;DHT22;74205;52.786;6.892;2024-02-14T20:32:08;11.40;100.00
52669;DHT22;74205;52.786;6.892;2024-02-14T20:35:29;11.40;100.00
52669;DHT22;74205;52.786;6.892;2024-02-14T20:38:52;11.50;100.00
52669;DHT22;74205;52.786;6.892;2024-02-14T20:42:15;11.50;100.00
52669;DHT22;74205;52.786;6.892;2024-02-14T20:45:36;11.50;100.00
52669;DHT22;74205;52.786;6.892;2024-02-14T20:48:56;11.50;100.00
52669;DHT22;74205;52.786;6.892;2024-02-14T20:52:17;11.50;100.00
52669;DHT22;74205;52.786;6.892;2024-02-14T20:55:37;11.50;100.00
52669;DHT22;74205;52.786;6.892;2024-02-14T20:58:58;11.50;100.00
52669;DHT22;74205;52.786;6.892;2024-02-14T21:02:21;11.50;100.00